createdAt,value
2022-11-09T00:02:59.020Z,21.70
2022-11-09T00:08:01.748Z,21.70
2022-11-09T00:13:04.681Z,21.67
2022-11-09T00:18:11.705Z,21.63
2022-11-09T00:23:14.312Z,21.57
2022-11-09T00:28:17.020Z,21.54
2022-11-09T00:33:21.230Z,21.52
2022-11-09T00:38:24.079Z,21.46
2022-11-09T00:43:26.733Z,21.43
2022-11-09T00:48:30.865Z,21.40
2022-11-09T00:53:33.532Z,21.33
2022-11-09T00:58:37.621Z,21.31
2022-11-09T01:03:41.899Z,21.30
2022-11-09T01:08:44.729Z,21.28
2022-11-09T01:13:47.433Z,21.24
2022-11-09T01:18:55.559Z,21.20
2022-11-09T01:24:01.590Z,21.19
2022-11-09T01:29:04.267Z,21.17
2022-11-09T01:34:10.518Z,21.13
2022-11-09T01:39:13.132Z,21.09
2022-11-09T01:44:16.900Z,21.07
2022-11-09T01:49:37.564Z,21.08
2022-11-09T01:54:41.288Z,21.03
2022-11-09T01:59:45.909Z,20.98
2022-11-09T02:04:51.169Z,21.00
2022-11-09T02:09:56.735Z,20.99
2022-11-09T02:15:01.183Z,20.98
2022-11-09T02:20:09.251Z,20.98
2022-11-09T02:25:11.918Z,20.96
2022-11-09T02:30:14.979Z,20.94
2022-11-09T02:35:21.275Z,20.92
2022-11-09T02:40:25.464Z,20.91
2022-11-09T02:45:29.442Z,20.87
2022-11-09T02:50:33.515Z,20.87
2022-11-09T02:55:36.238Z,20.84
2022-11-09T03:00:38.953Z,20.82
2022-11-09T03:05:44.778Z,20.82
2022-11-09T03:10:49.197Z,20.78
2022-11-09T03:15:52.322Z,20.76
2022-11-09T03:20:56.443Z,20.74
2022-11-09T03:25:59.132Z,20.71
2022-11-09T03:31:02.073Z,20.68
2022-11-09T03:36:07.602Z,20.66
2022-11-09T03:41:10.330Z,20.64
2022-11-09T03:46:13.308Z,20.60
2022-11-09T03:51:18.517Z,20.57
2022-11-09T03:56:21.133Z,20.49
2022-11-09T04:01:23.816Z,20.48
2022-11-09T04:06:27.930Z,20.47
2022-11-09T04:11:30.738Z,20.44
2022-11-09T04:16:33.355Z,20.39
2022-11-09T04:21:37.351Z,20.39
2022-11-09T04:26:39.922Z,20.36
2022-11-09T04:31:42.580Z,20.36
2022-11-09T04:36:46.732Z,20.35
2022-11-09T04:41:49.348Z,20.30
2022-11-09T04:46:52.002Z,20.30
2022-11-09T04:51:55.964Z,20.28
2022-11-09T04:56:58.552Z,20.27
2022-11-09T05:02:01.407Z,20.24
2022-11-09T05:07:05.447Z,20.24
2022-11-09T05:12:08.937Z,20.25
2022-11-09T05:17:11.545Z,20.34
2022-11-09T05:22:33.315Z,20.41
2022-11-09T05:27:36.119Z,20.47
2022-11-09T05:32:39.941Z,20.53
2022-11-09T05:37:43.967Z,20.57
2022-11-09T05:42:46.949Z,20.58
2022-11-09T05:47:49.612Z,20.59
2022-11-09T05:52:54.426Z,20.58
2022-11-09T05:57:57.123Z,20.56
2022-11-09T06:03:03.154Z,20.55
2022-11-09T06:08:10.763Z,20.52
2022-11-09T06:13:13.469Z,20.50
2022-11-09T06:18:16.047Z,20.50
2022-11-09T06:23:20.438Z,20.51
2022-11-09T06:28:23.381Z,20.52
2022-11-09T06:33:26.217Z,20.52
2022-11-09T06:38:30.292Z,20.56
2022-11-09T06:43:33.194Z,20.56
2022-11-09T06:48:36.056Z,20.54
2022-11-09T06:53:41.345Z,20.53
2022-11-09T06:58:45.006Z,20.50
2022-11-09T07:03:47.707Z,20.48
2022-11-09T07:08:51.755Z,20.47
2022-11-09T07:13:57.405Z,20.46
2022-11-09T07:19:00.575Z,20.48
2022-11-09T07:24:04.878Z,20.51
2022-11-09T07:29:07.720Z,20.54
2022-11-09T07:34:10.329Z,20.57
2022-11-09T07:39:14.282Z,20.61
2022-11-09T07:44:18.363Z,20.57
2022-11-09T07:49:21.186Z,20.53
2022-11-09T07:54:25.761Z,20.51
2022-11-09T07:59:28.433Z,20.49
2022-11-09T08:04:31.053Z,20.45
2022-11-09T08:09:35.334Z,20.42
2022-11-09T08:14:38.010Z,20.37
2022-11-09T08:19:40.643Z,20.37
2022-11-09T08:24:44.601Z,20.36
2022-11-09T08:29:47.294Z,20.32
2022-11-09T08:34:50.007Z,20.32
2022-11-09T08:39:53.964Z,20.31
2022-11-09T08:44:56.596Z,20.29
2022-11-09T08:49:59.191Z,20.26
2022-11-09T08:55:03.483Z,20.24
2022-11-09T09:00:07.422Z,20.25
2022-11-09T09:05:10.272Z,20.25
2022-11-09T09:10:14.307Z,20.24
2022-11-09T09:15:17.035Z,20.27
2022-11-09T09:20:19.893Z,20.27
2022-11-09T09:25:24.705Z,20.31
2022-11-09T09:30:27.335Z,19.83
2022-11-09T09:35:29.972Z,19.30
2022-11-09T09:40:37.885Z,18.86
2022-11-09T09:45:40.538Z,18.70
2022-11-09T09:50:46.654Z,18.55
2022-11-09T09:55:54.316Z,18.42
2022-11-09T10:00:59.566Z,18.40
2022-11-09T10:06:06.333Z,18.74
2022-11-09T10:11:16.392Z,19.05
2022-11-09T10:16:22.198Z,19.24
2022-11-09T10:21:32.926Z,19.35
2022-11-09T10:26:40.915Z,19.49
2022-11-09T10:31:43.878Z,19.63
2022-11-09T10:36:49.162Z,19.75
2022-11-09T10:41:54.756Z,19.85
2022-11-09T10:47:17.147Z,19.89
2022-11-09T10:52:46.173Z,19.98
2022-11-09T10:58:21.501Z,20.06
2022-11-09T11:03:43.299Z,20.09
2022-11-09T11:09:20.870Z,20.14
2022-11-09T11:14:45.113Z,20.18
2022-11-09T11:20:29.218Z,20.13
2022-11-09T11:25:58.968Z,20.20
2022-11-09T11:31:21.796Z,20.20
2022-11-09T11:36:50.589Z,20.26
2022-11-09T11:42:31.926Z,20.25
2022-11-09T11:47:58.531Z,20.21
2022-11-09T11:53:29.135Z,20.19
2022-11-09T11:59:03.910Z,20.17
2022-11-09T12:04:37.534Z,20.17
2022-11-09T12:10:15.452Z,20.14
2022-11-09T12:15:45.709Z,20.12
2022-11-09T12:21:14.726Z,20.19
2022-11-09T12:26:44.999Z,20.20
2022-11-09T12:32:14.614Z,20.22
2022-11-09T12:37:41.971Z,20.27
2022-11-09T12:43:05.272Z,20.42
2022-11-09T12:48:29.166Z,20.63
2022-11-09T12:53:52.200Z,20.73
2022-11-09T12:59:23.575Z,20.75
2022-11-09T13:04:55.521Z,20.82
2022-11-09T13:10:32.229Z,20.83
2022-11-09T13:16:11.327Z,20.87
2022-11-09T13:21:37.534Z,20.86
2022-11-09T13:27:01.366Z,20.93
2022-11-09T13:32:26.185Z,20.92
2022-11-09T13:37:49.351Z,20.87
2022-11-09T13:43:24.050Z,20.86
2022-11-09T13:48:45.414Z,20.83
2022-11-09T13:54:06.735Z,20.79
2022-11-09T13:59:30.907Z,20.78
2022-11-09T14:04:52.103Z,20.77
2022-11-09T14:10:16.743Z,20.76
2022-11-09T14:15:43.671Z,20.74
2022-11-09T14:21:18.640Z,20.77
2022-11-09T14:26:39.762Z,20.76
2022-11-09T14:32:03.269Z,20.75
2022-11-09T14:37:24.534Z,20.71
2022-11-09T14:42:49.164Z,20.70
2022-11-09T14:48:17.042Z,20.70
2022-11-09T14:53:39.186Z,20.70
2022-11-09T14:59:02.113Z,20.66
2022-11-09T15:04:26.912Z,20.61
2022-11-09T15:09:52.434Z,20.65
2022-11-09T15:15:19.552Z,20.68
2022-11-09T15:20:42.070Z,20.74
2022-11-09T15:26:03.543Z,20.74
2022-11-09T15:31:27.694Z,20.80
2022-11-09T15:36:55.265Z,20.87
2022-11-09T15:42:16.416Z,20.82
2022-11-09T15:47:38.561Z,20.87
2022-11-09T15:53:01.289Z,20.87
2022-11-09T15:58:23.230Z,20.93
2022-11-09T16:03:44.738Z,20.98
2022-11-09T16:09:07.537Z,21.06
2022-11-09T16:14:32.294Z,21.09
2022-11-09T16:19:54.152Z,21.11
2022-11-09T16:25:16.982Z,21.15
2022-11-09T16:30:41.567Z,21.18
2022-11-09T16:36:07.087Z,21.23
2022-11-09T16:41:30.083Z,21.27
2022-11-09T16:46:52.118Z,21.31
2022-11-09T16:52:13.540Z,21.33
2022-11-09T16:57:36.318Z,21.38
2022-11-09T17:02:57.609Z,21.46
2022-11-09T17:08:19.713Z,21.57
2022-11-09T17:13:42.592Z,21.73
2022-11-09T17:19:06.142Z,21.80
2022-11-09T17:24:27.371Z,21.83
2022-11-09T17:29:50.141Z,21.87
2022-11-09T17:35:11.591Z,21.88
2022-11-09T17:40:32.797Z,21.89
2022-11-09T17:45:55.830Z,21.89
2022-11-09T17:51:17.993Z,21.89
2022-11-09T17:56:39.817Z,21.89
2022-11-09T18:02:02.564Z,21.88
2022-11-09T18:07:25.229Z,21.87
2022-11-09T18:12:46.720Z,21.88
2022-11-09T18:18:09.613Z,21.88
2022-11-09T18:23:31.095Z,21.92
2022-11-09T18:28:52.514Z,21.91
2022-11-09T18:34:15.703Z,21.90
2022-11-09T18:39:36.862Z,21.91
2022-11-09T18:44:58.620Z,22.04
2022-11-09T18:50:21.801Z,22.04
2022-11-09T18:55:43.204Z,22.01
2022-11-09T19:01:07.254Z,22.02
2022-11-09T19:06:29.785Z,22.04
2022-11-09T19:11:51.453Z,22.00
2022-11-09T19:17:13.678Z,21.97
2022-11-09T19:22:36.784Z,21.97
2022-11-09T19:27:58.085Z,22.01
2022-11-09T19:33:19.539Z,21.99
2022-11-09T19:38:44.791Z,22.00
2022-11-09T19:44:07.139Z,22.01
2022-11-09T19:49:28.383Z,21.98
2022-11-09T19:54:50.921Z,22.03
2022-11-09T20:00:13.573Z,22.05
2022-11-09T20:05:35.038Z,22.08
2022-11-09T20:10:57.657Z,22.06
2022-11-09T20:16:19.047Z,22.04
2022-11-09T20:21:41.218Z,22.06
2022-11-09T20:27:03.993Z,22.07
2022-11-09T20:32:25.549Z,22.10
2022-11-09T20:37:46.951Z,22.09
2022-11-09T20:43:09.793Z,22.10
2022-11-09T20:48:52.629Z,22.10
2022-11-09T20:54:12.487Z,22.11
2022-11-09T20:59:35.222Z,22.10
2022-11-09T21:04:56.383Z,22.13
2022-11-09T21:10:18.661Z,22.11
2022-11-09T21:15:41.604Z,22.11
2022-11-09T21:21:07.172Z,22.11
2022-11-09T21:26:45.948Z,22.12
2022-11-09T21:32:08.910Z,22.08
2022-11-09T21:37:30.425Z,22.06
2022-11-09T21:42:52.047Z,22.08
2022-11-09T21:48:14.807Z,22.12
2022-11-09T21:53:37.089Z,22.13
2022-11-09T21:58:58.332Z,22.12
2022-11-09T22:04:21.024Z,22.14
2022-11-09T22:10:08.176Z,22.14
2022-11-09T22:15:41.044Z,22.15
2022-11-09T22:21:04.086Z,22.16
2022-11-09T22:26:25.593Z,22.18
2022-11-09T22:31:47.327Z,22.19
2022-11-09T22:37:09.868Z,22.16
2022-11-09T22:42:34.647Z,22.17
2022-11-09T22:47:56.115Z,22.18
2022-11-09T22:53:19.099Z,22.18
2022-11-09T22:58:40.844Z,22.17
2022-11-09T23:04:02.444Z,22.19
2022-11-09T23:09:25.304Z,22.19
2022-11-09T23:15:05.098Z,22.21
2022-11-09T23:20:29.941Z,22.19
2022-11-09T23:25:56.415Z,22.21
2022-11-09T23:31:19.426Z,22.21
2022-11-09T23:36:40.732Z,22.21
2022-11-09T23:42:03.569Z,22.22
2022-11-09T23:47:24.794Z,22.20
2022-11-09T23:52:46.192Z,22.19
2022-11-09T23:58:08.999Z,22.21
